createdAt,value
2017-11-22T00:00:44.211Z,68.5
2017-11-22T00:01:44.243Z,69.23
2017-11-22T00:02:44.249Z,69.26
2017-11-22T00:03:44.267Z,68.94
2017-11-22T00:04:44.321Z,68.84
2017-11-22T00:05:44.045Z,69.13
2017-11-22T00:06:44.321Z,68.75
2017-11-22T00:07:44.360Z,68.69
2017-11-22T00:08:44.357Z,68.84
2017-11-22T00:09:44.119Z,68.84
2017-11-22T00:10:44.403Z,68.59
2017-11-22T00:11:44.460Z,69.07
2017-11-22T00:12:44.431Z,69.26
2017-11-22T00:13:44.189Z,69.17
2017-11-22T00:14:44.472Z,68.88
2017-11-22T00:15:44.482Z,68.69
2017-11-22T00:16:44.501Z,69.23
2017-11-22T00:17:44.534Z,68.84
2017-11-22T00:18:44.277Z,68.65
2017-11-22T00:19:44.295Z,68.88
2017-11-22T00:20:44.583Z,68.69
2017-11-22T00:21:44.587Z,68.78
2017-11-22T00:22:44.606Z,68.88
2017-11-22T00:23:44.638Z,68.56
2017-11-22T00:24:44.639Z,68.65
2017-11-22T00:25:44.404Z,68.84
2017-11-22T00:26:44.735Z,68.56
2017-11-22T00:27:44.696Z,69.17
2017-11-22T00:28:44.457Z,69.23
2017-11-22T00:29:44.733Z,68.94
2017-11-22T00:30:44.501Z,68.65
2017-11-22T00:31:44.509Z,68.65
2017-11-22T00:32:44.527Z,68.84
2017-11-22T00:33:44.800Z,69.13
2017-11-22T00:34:44.823Z,69.23
2017-11-22T00:35:44.581Z,69.04
2017-11-22T00:36:44.855Z,69.04
2017-11-22T00:37:44.875Z,69.04
2017-11-22T00:38:44.632Z,69.23
2017-11-22T00:39:44.908Z,69.04
2017-11-22T00:40:44.666Z,68.75
2017-11-22T00:41:44.688Z,68.84
2017-11-22T00:42:44.958Z,68.75
2017-11-22T00:43:44.985Z,68.65
2017-11-22T00:44:44.998Z,68.18
2017-11-22T00:45:45.020Z,68.65
2017-11-22T00:46:45.030Z,68.65
2017-11-22T00:47:45.051Z,68.65
2017-11-22T00:48:44.808Z,68.84
2017-11-22T00:49:44.827Z,68.65
2017-11-22T00:50:45.105Z,68.75
2017-11-22T00:51:45.122Z,68.84
2017-11-22T00:52:45.149Z,68.65
2017-11-22T00:53:45.156Z,68.56
2017-11-22T00:54:45.180Z,68.37
2017-11-22T00:55:45.207Z,68.46
2017-11-22T00:56:45.244Z,68.37
2017-11-22T00:57:45.226Z,68.56
2017-11-22T00:58:45.039Z,68.56
2017-11-22T00:59:45.027Z,68.18
2017-11-22T01:00:45.284Z,67.7
2017-11-22T01:01:45.297Z,68.08
2017-11-22T01:02:45.058Z,68.27
2017-11-22T01:03:45.332Z,67.8
2017-11-22T01:04:45.349Z,67.89
2017-11-22T01:05:45.368Z,68.18
2017-11-22T01:06:45.130Z,68.56
2017-11-22T01:07:45.405Z,68.46
2017-11-22T01:08:45.166Z,68.27
2017-11-22T01:09:45.182Z,67.8
2017-11-22T01:10:45.461Z,68.27
2017-11-22T01:11:45.473Z,68.56
2017-11-22T01:12:45.497Z,67.8
2017-11-22T01:13:45.509Z,68.37
2017-11-22T01:14:45.586Z,68.18
2017-11-22T01:15:45.555Z,68.56
2017-11-22T01:16:45.571Z,67.89
2017-11-22T01:17:45.581Z,67.89
2017-11-22T01:18:45.607Z,67.7
2017-11-22T01:19:45.623Z,67.7
2017-11-22T01:20:45.383Z,67.41
2017-11-22T01:21:45.651Z,67.89
2017-11-22T01:22:45.668Z,68.18
2017-11-22T01:23:45.689Z,67.89
2017-11-22T01:24:45.704Z,67.99
2017-11-22T01:25:45.461Z,68.18
2017-11-22T01:26:45.737Z,68.46
2017-11-22T01:27:45.498Z,67.89
2017-11-22T01:28:45.773Z,68.08
2017-11-22T01:29:45.786Z,67.99
2017-11-22T01:30:45.550Z,68.08
2017-11-22T01:31:45.821Z,67.89
2017-11-22T01:32:45.846Z,67.8
2017-11-22T01:33:45.858Z,67.99
2017-11-22T01:34:45.619Z,68.18
2017-11-22T01:35:45.895Z,67.99
2017-11-22T01:36:45.661Z,68.46
2017-11-22T01:37:45.927Z,67.99
2017-11-22T01:38:45.946Z,68.27
2017-11-22T01:39:45.968Z,68.18
2017-11-22T01:40:45.981Z,68.18
2017-11-22T01:41:45.996Z,67.8
2017-11-22T01:42:46.017Z,68.18
2017-11-22T01:43:46.032Z,68.27
2017-11-22T01:44:45.796Z,68.18
2017-11-22T01:45:46.067Z,68.27
2017-11-22T01:46:45.828Z,67.99
2017-11-22T01:47:46.104Z,67.89
2017-11-22T01:48:46.169Z,68.46
2017-11-22T01:49:46.136Z,68.65
2017-11-22T01:50:45.897Z,68.56
2017-11-22T01:51:45.916Z,68.46
2017-11-22T01:52:45.933Z,68.46
2017-11-22T01:53:46.208Z,68.08
2017-11-22T01:54:46.233Z,68.27
2017-11-22T01:55:46.246Z,67.89
2017-11-22T01:56:46.258Z,68.37
2017-11-22T01:57:46.276Z,67.89
2017-11-22T01:58:46.312Z,68.18
2017-11-22T01:59:46.318Z,68.27
2017-11-22T02:00:46.330Z,67.99
2017-11-22T02:01:46.088Z,67.99
2017-11-22T02:02:46.105Z,68.27
2017-11-22T02:03:46.126Z,68.27
2017-11-22T02:04:46.404Z,68.08
2017-11-22T02:05:46.415Z,67.89
2017-11-22T02:06:46.429Z,68.08
2017-11-22T02:07:46.500Z,68.18
2017-11-22T02:08:46.467Z,67.7
2017-11-22T02:09:46.229Z,67.99
2017-11-22T02:10:46.498Z,67.51
2017-11-22T02:11:46.261Z,67.8
2017-11-22T02:12:46.289Z,67.41
2017-11-22T02:13:46.298Z,67.51
2017-11-22T02:14:46.574Z,68.37
2017-11-22T02:15:46.430Z,67.99
2017-11-22T02:16:46.352Z,67.89
2017-11-22T02:17:46.621Z,67.51
2017-11-22T02:18:46.642Z,67.61
2017-11-22T02:19:46.658Z,67.89
2017-11-22T02:20:46.418Z,67.41
2017-11-22T02:21:46.434Z,67.51
2017-11-22T02:22:46.742Z,67.7
2017-11-22T02:23:46.471Z,67.89
2017-11-22T02:24:46.486Z,67.41
2017-11-22T02:25:46.810Z,67.41
2017-11-22T02:26:46.778Z,67.8
2017-11-22T02:27:46.798Z,67.61
2017-11-22T02:28:46.815Z,67.61
2017-11-22T02:29:46.829Z,67.32
2017-11-22T02:30:46.922Z,67.32
2017-11-22T02:31:46.611Z,67.41
2017-11-22T02:32:46.883Z,67.41
2017-11-22T02:33:46.647Z,67.13
2017-11-22T02:34:46.920Z,67.8
2017-11-22T02:35:46.946Z,67.03
2017-11-22T02:36:46.698Z,67.22
2017-11-22T02:37:46.714Z,67.41
2017-11-22T02:38:47.005Z,67.03
2017-11-22T02:39:47.004Z,66.85
2017-11-22T02:40:47.041Z,67.32
2017-11-22T02:41:47.090Z,67.7
2017-11-22T02:42:47.060Z,67.03
2017-11-22T02:43:46.817Z,67.03
2017-11-22T02:44:46.840Z,66.94
2017-11-22T02:45:47.113Z,66.85
2017-11-22T02:46:46.874Z,66.94
2017-11-22T02:47:47.145Z,67.22
2017-11-22T02:48:47.164Z,66.94
2017-11-22T02:49:47.182Z,67
2017-11-22T02:50:46.945Z,67.22
2017-11-22T02:51:47.216Z,67.13
2017-11-22T02:52:47.238Z,67.22
2017-11-22T02:53:47.257Z,67.38
2017-11-22T02:54:47.266Z,67.29
2017-11-22T02:55:47.282Z,66.94
2017-11-22T02:56:47.094Z,66.81
2017-11-22T02:57:47.314Z,67.13
2017-11-22T02:58:47.349Z,67.38
2017-11-22T02:59:47.352Z,67.57
2017-11-22T03:00:47.380Z,67.57
2017-11-22T03:01:47.130Z,67.67
2017-11-22T03:02:47.147Z,67.38
2017-11-22T03:03:47.430Z,67.57
2017-11-22T03:04:47.439Z,67.67
2017-11-22T03:05:47.479Z,67.76
2017-11-22T03:06:47.476Z,67.86
2017-11-22T03:07:47.232Z,67.95
2017-11-22T03:08:47.252Z,68.05
2017-11-22T03:09:47.533Z,67.86
2017-11-22T03:10:47.543Z,67.67
2017-11-22T03:11:47.610Z,67.86
2017-11-22T03:12:47.574Z,67.95
2017-11-22T03:13:47.599Z,68.24
2017-11-22T03:14:47.614Z,67.95
2017-11-22T03:15:47.641Z,67.95
2017-11-22T03:16:47.644Z,67.76
2017-11-22T03:17:47.661Z,68.05
2017-11-22T03:18:47.690Z,67.76
2017-11-22T03:19:47.697Z,67.86
2017-11-22T03:20:47.713Z,67.67
2017-11-22T03:21:47.744Z,67.57
2017-11-22T03:22:47.744Z,68.15
2017-11-22T03:23:47.763Z,67.57
2017-11-22T03:24:47.782Z,69.67
2017-11-22T03:25:47.804Z,69.48
2017-11-22T03:26:47.816Z,68.71
2017-11-22T03:27:47.836Z,68.52
2017-11-22T03:28:48.004Z,68.24
2017-11-22T03:29:47.865Z,68.33
2017-11-22T03:30:47.889Z,68.24
2017-11-22T03:31:47.651Z,68.15
2017-11-22T03:32:47.920Z,67.57
2017-11-22T03:33:47.935Z,68.33
2017-11-22T03:34:47.957Z,68.81
2017-11-22T03:35:47.972Z,68.24
2017-11-22T03:36:48.009Z,67.57
2017-11-22T03:37:47.752Z,68.81
2017-11-22T03:38:48.027Z,69.1
2017-11-22T03:39:48.041Z,67.86
2017-11-22T03:40:48.056Z,67.57
2017-11-22T03:41:47.820Z,67.67
2017-11-22T03:42:48.116Z,68.52
2017-11-22T03:43:47.856Z,68.52
2017-11-22T03:44:48.131Z,67.38
2017-11-22T03:45:48.144Z,67
2017-11-22T03:46:47.906Z,67.76
2017-11-22T03:47:47.976Z,67.29
2017-11-22T03:48:48.208Z,67.38
2017-11-22T03:49:48.220Z,67.22
2017-11-22T03:50:47.982Z,67.38
2017-11-22T03:51:48.252Z,67.22
2017-11-22T03:52:48.278Z,67.19
2017-11-22T03:53:48.284Z,67.38
2017-11-22T03:54:48.342Z,67.41
2017-11-22T03:55:48.065Z,67.76
2017-11-22T03:56:48.085Z,67.67
2017-11-22T03:57:48.106Z,66.62
2017-11-22T03:58:48.376Z,67.99
2017-11-22T03:59:48.413Z,68.18
2017-11-22T04:00:48.411Z,67.13
2017-11-22T04:01:48.427Z,67.89
2017-11-22T04:02:48.495Z,69.19
2017-11-22T04:03:48.465Z,67.47
2017-11-22T04:04:48.482Z,68.94
2017-11-22T04:05:48.499Z,68.81
2017-11-22T04:06:48.520Z,68.62
2017-11-22T04:07:48.274Z,68.94
2017-11-22T04:08:48.292Z,69.1
2017-11-22T04:09:48.311Z,70.05
2017-11-22T04:10:48.587Z,68.81
2017-11-22T04:11:48.605Z,69.38
2017-11-22T04:12:48.618Z,69.19
2017-11-22T04:13:48.380Z,69.48
2017-11-22T04:14:48.657Z,69.67
2017-11-22T04:15:48.671Z,69.38
2017-11-22T04:16:48.435Z,70.05
2017-11-22T04:17:48.760Z,70.81
2017-11-22T04:18:48.722Z,69.76
2017-11-22T04:19:48.751Z,69.95
2017-11-22T04:20:48.760Z,70.05
2017-11-22T04:21:48.774Z,70.62
2017-11-22T04:22:49.539Z,71.86
2017-11-22T04:23:48.554Z,70.72
2017-11-22T04:24:48.836Z,69.57
2017-11-22T04:25:48.849Z,69.57
2017-11-22T04:26:48.864Z,70.14
2017-11-22T04:27:48.626Z,70.14
2017-11-22T04:28:48.641Z,70.62
2017-11-22T04:29:48.658Z,70.43
2017-11-22T04:30:48.932Z,70.24
2017-11-22T04:31:48.947Z,69.57
2017-11-22T04:32:49.016Z,69.76
2017-11-22T04:33:48.988Z,69.85
2017-11-22T04:34:49.003Z,70.33
2017-11-22T04:35:49.019Z,69.57
2017-11-22T04:36:49.036Z,71.19
2017-11-22T04:37:48.798Z,70.81
2017-11-22T04:38:48.815Z,69.95
2017-11-22T04:39:49.094Z,70.77
2017-11-22T04:40:49.107Z,70.49
2017-11-22T04:41:48.879Z,72.49
2017-11-22T04:42:49.143Z,71.72
2017-11-22T04:43:49.160Z,71.63
2017-11-22T04:44:49.173Z,71.82
2017-11-22T04:45:48.937Z,71.44
2017-11-22T04:46:49.208Z,71.38
2017-11-22T04:47:49.225Z,71.72
2017-11-22T04:48:48.985Z,71.34
2017-11-22T04:49:49.272Z,71.91
2017-11-22T04:50:49.278Z,71.82
2017-11-22T04:51:49.088Z,72.49
2017-11-22T04:52:49.314Z,71.82
2017-11-22T04:53:49.329Z,72.2
2017-11-22T04:54:49.346Z,71.72
2017-11-22T04:55:49.368Z,71.91
2017-11-22T04:56:49.491Z,72.39
2017-11-22T04:57:49.145Z,71.82
2017-11-22T04:58:49.160Z,71.72
2017-11-22T04:59:49.433Z,71.82
2017-11-22T05:00:49.459Z,72.3
2017-11-22T05:01:49.466Z,72.11
2017-11-22T05:02:49.226Z,72.39
2017-11-22T05:03:49.244Z,71.82
2017-11-22T05:04:49.516Z,71.91
2017-11-22T05:05:49.538Z,72.39
2017-11-22T05:06:49.553Z,72.2
2017-11-22T05:07:49.313Z,71.82
2017-11-22T05:08:49.584Z,71.91
2017-11-22T05:09:49.394Z,72.11
2017-11-22T05:10:49.626Z,71.82
2017-11-22T05:11:49.633Z,71.72
2017-11-22T05:12:49.651Z,72.2
2017-11-22T05:13:49.673Z,72.49
2017-11-22T05:14:49.428Z,72.67
2017-11-22T05:15:49.704Z,72.77
2017-11-22T05:16:49.716Z,72.83
2017-11-22T05:17:49.747Z,72.55
2017-11-22T05:18:49.499Z,72.45
2017-11-22T05:19:49.770Z,72.74
2017-11-22T05:20:49.795Z,73.11
2017-11-22T05:21:49.811Z,72.92
2017-11-22T05:22:49.832Z,73.4
2017-11-22T05:23:49.577Z,73.49
2017-11-22T05:24:49.904Z,73.11
2017-11-22T05:25:49.874Z,73.21
2017-11-22T05:26:49.886Z,73.78
2017-11-22T05:27:49.648Z,73.3
2017-11-22T05:28:49.922Z,73.88
2017-11-22T05:29:49.936Z,73.69
2017-11-22T05:30:49.955Z,72.92
2017-11-22T05:31:49.721Z,73.69
2017-11-22T05:32:49.988Z,73.49
2017-11-22T05:33:50.008Z,73.3
2017-11-22T05:34:50.020Z,73.88
2017-11-22T05:35:50.038Z,73.88
2017-11-22T05:36:50.050Z,73.88
2017-11-22T05:37:49.813Z,74.54
2017-11-22T05:38:50.087Z,74.07
2017-11-22T05:39:50.154Z,74.44
2017-11-22T05:40:50.125Z,73.59
2017-11-22T05:41:50.137Z,74.07
2017-11-22T05:42:50.150Z,74.26
2017-11-22T05:43:50.192Z,74.44
2017-11-22T05:44:50.197Z,73.88
2017-11-22T05:45:50.212Z,74.54
2017-11-22T05:46:50.219Z,73.69
2017-11-22T05:47:50.240Z,73.78
2017-11-22T05:48:50.251Z,73.49
2017-11-22T05:49:50.287Z,74.44
2017-11-22T05:50:50.284Z,73.59
2017-11-22T05:51:50.301Z,74.07
2017-11-22T05:52:50.061Z,73.97
2017-11-22T05:53:50.338Z,74.07
2017-11-22T05:54:50.408Z,73.78
2017-11-22T05:55:50.124Z,73.69
2017-11-22T05:56:50.386Z,74.07
2017-11-22T05:57:50.406Z,73.78
2017-11-22T05:58:50.425Z,74.07
2017-11-22T05:59:50.536Z,73.97
2017-11-22T06:00:50.448Z,74.35
2017-11-22T06:01:50.209Z,74.35
2017-11-22T06:02:50.483Z,74.07
2017-11-22T06:03:50.503Z,73.97
2017-11-22T06:04:50.612Z,73.69
2017-11-22T06:05:50.544Z,74.35
2017-11-22T06:06:50.547Z,74.07
2017-11-22T06:07:50.308Z,74.07
2017-11-22T06:08:50.580Z,73.88
2017-11-22T06:09:50.390Z,74.03
2017-11-22T06:10:50.354Z,74.16
2017-11-22T06:11:50.637Z,74.16
2017-11-22T06:12:50.653Z,73.78
2017-11-22T06:13:50.660Z,73.78
2017-11-22T06:14:50.419Z,75.21
2017-11-22T06:15:50.693Z,74.35
2017-11-22T06:16:50.718Z,74.35
2017-11-22T06:17:50.736Z,74.35
2017-11-22T06:18:50.488Z,73.88
2017-11-22T06:19:50.502Z,73.4
2017-11-22T06:20:50.521Z,73.69
2017-11-22T06:21:50.795Z,74.26
2017-11-22T06:22:50.553Z,74.54
2017-11-22T06:23:50.834Z,74.44
2017-11-22T06:24:50.896Z,73.97
2017-11-22T06:25:50.606Z,73.97
2017-11-22T06:26:50.883Z,74.35
2017-11-22T06:27:50.912Z,73.97
2017-11-22T06:28:50.654Z,74.26
2017-11-22T06:29:50.937Z,75.59
2017-11-22T06:30:50.687Z,74.73
2017-11-22T06:31:50.704Z,74.44
2017-11-22T06:32:50.718Z,74.54
2017-11-22T06:33:50.991Z,74.35
2017-11-22T06:34:51.011Z,73.49
2017-11-22T06:35:51.036Z,73.21
2017-11-22T06:36:51.043Z,74.63
2017-11-22T06:37:51.057Z,74.44
2017-11-22T06:38:51.076Z,74.35
2017-11-22T06:39:50.886Z,74.26
2017-11-22T06:40:50.853Z,74.26
2017-11-22T06:41:50.867Z,73.78
2017-11-22T06:42:51.144Z,73.88
2017-11-22T06:43:51.160Z,73.59
2017-11-22T06:44:51.175Z,73.78
2017-11-22T06:45:50.938Z,72.45
2017-11-22T06:46:51.217Z,72.64
2017-11-22T06:47:50.969Z,72.16
2017-11-22T06:48:50.983Z,72.74
2017-11-22T06:49:51.295Z,72.45
2017-11-22T06:50:51.017Z,72.55
2017-11-22T06:51:51.034Z,71.59
2017-11-22T06:52:51.307Z,71.97
2017-11-22T06:53:51.324Z,72.26
2017-11-22T06:54:51.393Z,71.78
2017-11-22T06:55:51.101Z,71.5
2017-11-22T06:56:51.390Z,70.54
2017-11-22T06:57:51.390Z,70.36
2017-11-22T06:58:51.419Z,69.88
2017-11-22T06:59:51.424Z,69.88
2017-11-22T07:00:51.182Z,70.17
2017-11-22T07:01:51.199Z,70.07
2017-11-22T07:02:51.509Z,69.88
2017-11-22T07:03:51.500Z,69.12
2017-11-22T07:04:51.507Z,69.41
2017-11-22T07:05:51.525Z,69.12
2017-11-22T07:06:51.538Z,68.93
2017-11-22T07:07:51.554Z,68.65
2017-11-22T07:08:51.573Z,68.96
2017-11-22T07:09:51.590Z,68.87
2017-11-22T07:10:51.603Z,68.21
2017-11-22T07:11:51.687Z,67.44
2017-11-22T07:12:51.380Z,67.63
2017-11-22T07:13:51.656Z,67.25
2017-11-22T07:14:51.669Z,67.25
2017-11-22T07:15:51.692Z,67.25
2017-11-22T07:16:51.726Z,66.97
2017-11-22T07:17:51.730Z,67.07
2017-11-22T07:18:51.737Z,66.78
2017-11-22T07:19:51.765Z,66.68
2017-11-22T07:20:51.782Z,66.49
2017-11-22T07:21:51.787Z,66.39
2017-11-22T07:22:51.805Z,66.02
2017-11-22T07:23:51.564Z,65.73
2017-11-22T07:24:51.836Z,65.64
2017-11-22T07:25:51.600Z,66.02
2017-11-22T07:26:51.615Z,65.73
2017-11-22T07:27:51.888Z,65.48
2017-11-22T07:28:51.846Z,65.1
2017-11-22T07:29:51.923Z,64.9
2017-11-22T07:30:51.939Z,64.9
2017-11-22T07:31:51.957Z,64.9
2017-11-22T07:32:51.715Z,64.53
2017-11-22T07:33:51.990Z,64.43
2017-11-22T07:34:52.006Z,63.48
2017-11-22T07:35:52.021Z,63.57
2017-11-22T07:36:52.041Z,63.39
2017-11-22T07:37:52.056Z,63.29
2017-11-22T07:38:52.080Z,64.15
2017-11-22T07:39:52.091Z,63.39
2017-11-22T07:40:52.117Z,63.48
2017-11-22T07:41:52.133Z,63.6
2017-11-22T07:42:52.143Z,62.56
2017-11-22T07:43:51.955Z,62.46
2017-11-22T07:44:52.178Z,62.65
2017-11-22T07:45:52.193Z,62.46
2017-11-22T07:46:52.214Z,62.37
2017-11-22T07:47:52.234Z,61.9
2017-11-22T07:48:52.249Z,61.9
2017-11-22T07:49:52.265Z,61.7
2017-11-22T07:50:52.292Z,61.22
2017-11-22T07:51:52.300Z,61.13
2017-11-22T07:52:52.316Z,61.22
2017-11-22T07:53:52.332Z,60.85
2017-11-22T07:54:52.369Z,60.46
2017-11-22T07:55:52.376Z,59.99
2017-11-22T07:56:52.387Z,60.21
2017-11-22T07:57:52.404Z,60.3
2017-11-22T07:58:52.433Z,59.35
2017-11-22T07:59:52.442Z,59.74
2017-11-22T08:00:52.204Z,59.45
2017-11-22T08:01:52.479Z,59.45
2017-11-22T08:02:52.499Z,58.87
2017-11-22T08:03:52.532Z,58.87
2017-11-22T08:04:52.534Z,58.69
2017-11-22T08:05:52.552Z,58.78
2017-11-22T08:06:52.571Z,58.3
2017-11-22T08:07:52.593Z,58.21
2017-11-22T08:08:52.605Z,58.11
2017-11-22T08:09:52.624Z,57.76
2017-11-22T08:10:52.650Z,57.76
2017-11-22T08:11:52.659Z,57.76
2017-11-22T08:12:52.678Z,57.76
2017-11-22T08:13:52.698Z,57.19
2017-11-22T08:14:52.714Z,57.09
2017-11-22T08:15:52.743Z,56.81
2017-11-22T08:16:52.752Z,57
2017-11-22T08:17:52.771Z,56.9
2017-11-22T08:18:52.841Z,56.62
2017-11-22T08:19:52.810Z,56.9
2017-11-22T08:20:52.829Z,56.81
2017-11-22T08:21:52.845Z,56.46
2017-11-22T08:22:52.869Z,55.98
2017-11-22T08:23:52.882Z,56.26
2017-11-22T08:24:52.903Z,55.5
2017-11-22T08:25:52.927Z,55.5
2017-11-22T08:26:52.942Z,55.21
2017-11-22T08:27:52.962Z,54.93
2017-11-22T08:28:52.978Z,54.93
2017-11-22T08:29:52.742Z,55.21
2017-11-22T08:30:52.762Z,54.93
2017-11-22T08:31:52.792Z,54.36
2017-11-22T08:32:52.799Z,54.55
2017-11-22T08:33:53.127Z,55.12
2017-11-22T08:34:53.099Z,54.07
2017-11-22T08:35:53.115Z,53.91
2017-11-22T08:36:52.873Z,54
2017-11-22T08:37:53.158Z,53.24
2017-11-22T08:38:53.170Z,52.86
2017-11-22T08:39:52.942Z,52.95
2017-11-22T08:40:53.211Z,52.76
2017-11-22T08:41:53.227Z,53.05
2017-11-22T08:42:52.988Z,53.14
2017-11-22T08:43:53.264Z,52.86
2017-11-22T08:44:53.285Z,52.69
2017-11-22T08:45:53.046Z,52.19
2017-11-22T08:46:53.325Z,51.74
2017-11-22T08:47:53.347Z,52.31
2017-11-22T08:48:53.105Z,51.74
2017-11-22T08:49:53.390Z,51.26
2017-11-22T08:50:53.454Z,51.45
2017-11-22T08:51:53.165Z,51.26
2017-11-22T08:52:53.442Z,51.26
2017-11-22T08:53:53.464Z,51.26
2017-11-22T08:54:53.225Z,51.35
2017-11-22T08:55:53.516Z,51.07
2017-11-22T08:56:53.519Z,49.95
2017-11-22T08:57:53.541Z,50.52
2017-11-22T08:58:53.561Z,50.24
2017-11-22T08:59:53.580Z,49.76
2017-11-22T09:00:53.616Z,49.38
2017-11-22T09:01:53.364Z,49.28
2017-11-22T09:02:53.383Z,48.93
2017-11-22T09:03:53.666Z,48.93
2017-11-22T09:04:53.425Z,48.16
2017-11-22T09:05:53.703Z,48.73
2017-11-22T09:06:53.721Z,48.25
2017-11-22T09:07:53.751Z,47.58
2017-11-22T09:08:53.813Z,48.07
2017-11-22T09:09:53.781Z,47.49
2017-11-22T09:10:53.547Z,46.92
2017-11-22T09:11:53.825Z,46.63
2017-11-22T09:12:53.586Z,46.25
2017-11-22T09:13:53.605Z,46.63
2017-11-22T09:14:53.886Z,46.92
2017-11-22T09:15:53.920Z,47.2
2017-11-22T09:16:53.928Z,47.01
2017-11-22T09:17:53.958Z,46.06
2017-11-22T09:18:53.969Z,46.53
2017-11-22T09:19:53.990Z,46.25
2017-11-22T09:20:54.023Z,46.37
2017-11-22T09:21:54.028Z,46.37
2017-11-22T09:22:53.794Z,46.37
2017-11-22T09:23:53.864Z,46.17
2017-11-22T09:24:54.089Z,46.27
2017-11-22T09:25:53.857Z,45.6
2017-11-22T09:26:54.134Z,45.51
2017-11-22T09:27:53.901Z,45.41
2017-11-22T09:28:54.175Z,45.22
2017-11-22T09:29:54.205Z,45.51
2017-11-22T09:30:54.218Z,45.22
2017-11-22T09:31:54.243Z,45.12
2017-11-22T09:32:54.299Z,45.03
2017-11-22T09:33:54.295Z,45.22
2017-11-22T09:34:54.300Z,44.65
2017-11-22T09:35:54.319Z,44.76
2017-11-22T09:36:54.085Z,44.86
2017-11-22T09:37:54.404Z,45.05
2017-11-22T09:38:54.177Z,44.09
2017-11-22T09:39:54.404Z,44.09
2017-11-22T09:40:54.437Z,43.71
2017-11-22T09:41:54.456Z,44
2017-11-22T09:42:54.470Z,43.52
2017-11-22T09:43:54.502Z,43.9
2017-11-22T09:44:54.260Z,43.43
2017-11-22T09:45:54.549Z,43.43
2017-11-22T09:46:54.298Z,42.68
2017-11-22T09:47:54.317Z,41.91
2017-11-22T09:48:54.596Z,41.63
2017-11-22T09:49:54.374Z,41.53
2017-11-22T09:50:54.666Z,40.88
2017-11-22T09:51:54.409Z,40.88
2017-11-22T09:52:54.689Z,40.31
2017-11-22T09:53:54.765Z,39.08
2017-11-22T09:54:54.737Z,39.08
2017-11-22T09:55:54.791Z,38.41
2017-11-22T09:56:54.792Z,37.95
2017-11-22T09:57:54.811Z,37.93
2017-11-22T09:58:54.578Z,37.95
2017-11-22T09:59:54.604Z,38.05
2017-11-22T10:00:54.888Z,36.82
2017-11-22T10:01:54.914Z,36.63
2017-11-22T10:02:54.681Z,36.63
2017-11-22T10:03:54.966Z,36.34
2017-11-22T10:04:54.987Z,36.34
2017-11-22T10:05:55.014Z,35.88
2017-11-22T10:06:54.785Z,35.78
2017-11-22T10:07:55.066Z,35.02
2017-11-22T10:08:55.096Z,35.02
2017-11-22T10:09:55.135Z,35.1
2017-11-22T10:10:54.892Z,35.38
2017-11-22T10:11:55.227Z,35.28
2017-11-22T10:12:55.203Z,35.19
2017-11-22T10:13:54.975Z,34.63
2017-11-22T10:14:55.001Z,34.55
2017-11-22T10:15:55.025Z,33.31
2017-11-22T10:16:55.057Z,33.03
2017-11-22T10:17:55.341Z,32.75
2017-11-22T10:18:55.385Z,32.36
2017-11-22T10:19:55.396Z,33.01
2017-11-22T10:20:55.167Z,32.46
2017-11-22T10:21:55.448Z,32.46
2017-11-22T10:22:55.223Z,32.07
2017-11-22T10:23:55.512Z,31.99
2017-11-22T10:24:55.535Z,31.61
2017-11-22T10:25:55.563Z,31.15
2017-11-22T10:26:55.590Z,30.95
2017-11-22T10:27:55.621Z,30.19
2017-11-22T10:28:55.391Z,29.72
2017-11-22T10:29:55.469Z,29.91
2017-11-22T10:30:55.707Z,29.83
2017-11-22T10:31:55.477Z,29.44
2017-11-22T10:32:55.768Z,29.72
2017-11-22T10:33:55.535Z,30.1
2017-11-22T10:34:55.829Z,29.52
2017-11-22T10:35:55.858Z,29.25
2017-11-22T10:36:55.884Z,29.15
2017-11-22T10:37:55.915Z,28.96
2017-11-22T10:38:55.941Z,28.86
2017-11-22T10:39:55.979Z,28.58
2017-11-22T10:40:55.744Z,28.67
2017-11-22T10:41:55.770Z,28.48
2017-11-22T10:42:56.057Z,28.86
2017-11-22T10:43:55.832Z,28.29
2017-11-22T10:44:56.120Z,28.19
2017-11-22T10:45:56.209Z,28.11
2017-11-22T10:46:55.925Z,27.83
2017-11-22T10:47:56.208Z,27.35
2017-11-22T10:48:55.980Z,26.69
2017-11-22T10:49:56.270Z,26.79
2017-11-22T10:50:56.243Z,26.31
2017-11-22T10:51:56.331Z,25.74
2017-11-22T10:52:56.359Z,26.22
2017-11-22T10:53:56.133Z,26.03
2017-11-22T10:54:56.163Z,26.42
2017-11-22T10:55:56.194Z,25.95
2017-11-22T10:56:56.485Z,25.95
2017-11-22T10:57:56.517Z,25.46
2017-11-22T10:58:56.291Z,24.43
2017-11-22T10:59:56.578Z,24.04
2017-11-22T11:00:56.606Z,24.62
2017-11-22T11:01:56.651Z,23.46
2017-11-22T11:02:56.675Z,23.38
2017-11-22T11:03:56.700Z,23.08
2017-11-22T11:04:56.474Z,23.38
2017-11-22T11:05:56.766Z,23.1
2017-11-22T11:06:56.800Z,22.43
2017-11-22T11:07:56.826Z,22.33
2017-11-22T11:08:56.860Z,23.21
2017-11-22T11:09:56.890Z,21.57
2017-11-22T11:10:56.924Z,22.24
2017-11-22T11:11:56.701Z,21.17
2017-11-22T11:12:56.730Z,21.47
2017-11-22T11:13:57.060Z,21.48
2017-11-22T11:14:57.058Z,22.05
2017-11-22T11:15:57.091Z,22.52
2017-11-22T11:16:56.862Z,22.42
2017-11-22T11:17:57.151Z,21.84
2017-11-22T11:18:57.185Z,21.75
2017-11-22T11:19:57.013Z,22.41
2017-11-22T11:20:57.247Z,23.08
2017-11-22T11:21:57.284Z,23.17
2017-11-22T11:22:57.314Z,22.78
2017-11-22T11:23:57.364Z,22.5
2017-11-22T11:24:57.380Z,22.78
2017-11-22T11:25:57.158Z,22.89
2017-11-22T11:26:57.455Z,22.6
2017-11-22T11:27:57.475Z,22.41
2017-11-22T11:28:57.508Z,21.75
2017-11-22T11:29:57.540Z,22.05
2017-11-22T11:30:57.315Z,21.66
2017-11-22T11:31:57.631Z,21.38
2017-11-22T11:32:57.639Z,21.75
2017-11-22T11:33:57.415Z,21.75
2017-11-22T11:34:57.752Z,21.09
2017-11-22T11:35:57.481Z,20.7
2017-11-22T11:36:57.768Z,20.52
2017-11-22T11:37:57.549Z,20.61
2017-11-22T11:38:57.834Z,21
2017-11-22T11:39:57.868Z,20.71
2017-11-22T11:40:57.902Z,20.89
2017-11-22T11:41:57.937Z,21.09
2017-11-22T11:42:57.976Z,20.41
2017-11-22T11:43:58.003Z,20.7
2017-11-22T11:44:58.044Z,21.2
2017-11-22T11:45:57.809Z,19.75
2017-11-22T11:46:57.842Z,19.75
2017-11-22T11:47:58.132Z,19.84
2017-11-22T11:48:58.191Z,20.31
2017-11-22T11:49:58.211Z,20.9
2017-11-22T11:50:57.974Z,19.66
2017-11-22T11:51:58.268Z,19.37
2017-11-22T11:52:58.042Z,19.95
2017-11-22T11:53:58.073Z,19.94
2017-11-22T11:54:58.106Z,19.84
2017-11-22T11:55:58.140Z,19.83
2017-11-22T11:56:58.176Z,20.51
2017-11-22T11:57:58.480Z,20.99
2017-11-22T11:58:58.500Z,20.52
2017-11-22T11:59:58.275Z,19.46
2017-11-22T12:00:58.566Z,19.28
2017-11-22T12:01:58.594Z,18.71
2017-11-22T12:02:58.642Z,17.65
2017-11-22T12:03:58.684Z,17.66
2017-11-22T12:04:58.446Z,18.33
2017-11-22T12:05:58.732Z,18.61
2017-11-22T12:06:58.763Z,18.41
2017-11-22T12:07:58.859Z,19.07
2017-11-22T12:08:58.824Z,19.45
2017-11-22T12:09:58.868Z,19.64
2017-11-22T12:10:58.892Z,19.83
2017-11-22T12:11:58.923Z,19.65
2017-11-22T12:12:58.955Z,19.26
2017-11-22T12:13:58.732Z,19.26
2017-11-22T12:14:59.020Z,18.49
2017-11-22T12:15:59.052Z,18.41
2017-11-22T12:16:58.828Z,18.49
2017-11-22T12:17:59.114Z,18.79
2017-11-22T12:18:58.893Z,18.59
2017-11-22T12:19:59.178Z,18.41
2017-11-22T12:20:59.219Z,18.41
2017-11-22T12:21:59.247Z,17.54
2017-11-22T12:22:59.284Z,17.36
2017-11-22T12:23:59.311Z,17.64
2017-11-22T12:24:59.139Z,17.64
2017-11-22T12:25:59.122Z,17.64
2017-11-22T12:26:59.409Z,17.93
2017-11-22T12:27:59.186Z,17.74
2017-11-22T12:28:59.486Z,17.54
2017-11-22T12:29:59.509Z,17.54
2017-11-22T12:30:59.283Z,18.31
2017-11-22T12:31:59.582Z,17.25
2017-11-22T12:32:59.613Z,17.54
2017-11-22T12:33:59.389Z,17.36
2017-11-22T12:34:59.671Z,17.27
2017-11-22T12:35:59.712Z,16.3
2017-11-22T12:36:59.746Z,16.79
2017-11-22T12:37:59.775Z,15.83
2017-11-22T12:38:59.810Z,15.74
2017-11-22T12:39:59.633Z,16.02
2017-11-22T12:40:59.616Z,15.45
2017-11-22T12:41:59.906Z,16.03
2017-11-22T12:42:59.942Z,15.64
2017-11-22T12:43:59.976Z,15.75
2017-11-22T12:45:00.008Z,15.17
2017-11-22T12:45:59.783Z,14.89
2017-11-22T12:47:00.085Z,14.69
2017-11-22T12:48:00.110Z,14.69
2017-11-22T12:49:00.145Z,13.92
2017-11-22T12:50:00.181Z,13.92
2017-11-22T12:50:59.956Z,14.6
2017-11-22T12:52:00.251Z,13.35
2017-11-22T12:53:00.025Z,13.64
2017-11-22T12:54:00.338Z,13.74
2017-11-22T12:55:00.402Z,13.24
2017-11-22T12:56:00.133Z,13.14